Time;durP1;ratioP1;P1;durP2;ratioP2;P2;SDS_P1;SDS_P2;PMS_P1;PMS_P2;Temp;Humidity;BMP_temperature;BMP_pressure;BME280_temperature;BME280_humidity;BME280_pressure;Samples;Min_cycle;Max_cycle;Signal;HPM_P1;HPM_P2
2024/01/30 00:01:01;;;;;;;51.95;26.45;;;11.40;99.90;;;10.73;100.00;102255.28;4168928;28;20033;-72
2024/01/30 00:03:02;;;;;;;39.88;19.25;;;11.40;99.90;;;10.73;100.00;102257.09;4169074;28;20026;-72
2024/01/30 00:05:03;;;;;;;50.20;21.05;;;11.40;99.90;;;10.75;100.00;102263.91;4169062;28;20022;-72
2024/01/30 00:07:04;;;;;;;45.70;16.20;;;11.40;99.90;;;10.75;100.00;102268.38;4169056;28;20026;-72
2024/01/30 00:09:05;;;;;;;30.98;12.93;;;11.40;99.90;;;10.75;100.00;102269.19;4168898;28;20025;-72
2024/01/30 00:11:07;;;;;;;25.08;10.07;;;11.40;99.90;;;10.77;100.00;102284.94;4169047;28;20036;-72
2024/01/30 00:13:08;;;;;;;34.58;11.15;;;11.40;99.90;;;10.80;100.00;102276.78;4167922;28;20052;-72
2024/01/30 00:15:09;;;;;;;24.85;9.70;;;11.40;99.90;;;10.79;100.00;102275.94;4168639;28;20040;-72
2024/01/30 00:17:10;;;;;;;26.40;9.38;;;11.40;99.90;;;10.83;100.00;102284.44;4168863;28;20057;-72
2024/01/30 00:19:11;;;;;;;29.70;11.27;;;11.40;99.90;;;10.82;100.00;102280.97;4168811;28;20033;-72
2024/01/30 00:21:13;;;;;;;28.80;11.63;;;11.40;99.90;;;10.82;100.00;102275.69;4168756;28;20036;-72
2024/01/30 00:23:13;;;;;;;29.70;9.98;;;11.40;99.90;;;10.82;100.00;102280.97;4167589;28;20034;-72
2024/01/30 00:25:14;;;;;;;22.33;10.93;;;11.40;99.90;;;10.81;100.00;102274.00;4168673;28;20053;-72
2024/01/30 00:27:16;;;;;;;30.38;9.65;;;11.40;99.90;;;10.80;100.00;102277.63;4167627;28;20037;-72
2024/01/30 00:29:19;;;;;;;24.17;8.45;;;11.40;99.90;;;10.85;100.00;102275.44;4167492;28;20032;-72
2024/01/30 00:31:20;;;;;;;22.25;8.85;;;11.40;99.90;;;10.88;100.00;102292.84;4168683;28;20021;-72
2024/01/30 00:33:21;;;;;;;26.10;8.77;;;11.40;99.90;;;10.87;100.00;102291.19;4168583;28;20038;-72
2024/01/30 00:35:22;;;;;;;21.80;8.35;;;11.40;99.90;;;10.87;100.00;102289.34;4168771;28;20112;-72
2024/01/30 00:37:23;;;;;;;21.15;8.93;;;11.50;99.90;;;10.86;100.00;102287.69;4168704;28;20025;-72
2024/01/30 00:39:24;;;;;;;23.98;7.20;;;11.50;99.90;;;10.86;100.00;102282.41;4168587;28;20044;-72
2024/01/30 00:41:25;;;;;;;16.17;6.47;;;11.50;99.90;;;10.86;100.00;102281.56;4168453;28;20034;-72
2024/01/30 00:43:26;;;;;;;18.73;6.57;;;11.50;99.90;;;10.83;100.00;102295.84;4170449;28;20064;-72
2024/01/30 00:45:26;;;;;;;24.73;6.20;;;11.50;99.90;;;10.82;100.00;102302.09;4173739;28;20052;-72
2024/01/30 00:47:29;;;;;;;18.30;4.70;;;11.40;99.90;;;10.72;100.00;102298.47;4173990;28;20052;-72
2024/01/30 00:49:30;;;;;;;12.93;4.30;;;11.40;99.90;;;10.66;100.00;102300.78;4172721;28;20014;-72
2024/01/30 00:51:30;;;;;;;15.45;3.95;;;11.30;99.90;;;10.59;100.00;102300.41;4174107;28;20056;-72
2024/01/30 00:53:31;;;;;;;10.40;2.97;;;11.30;99.90;;;10.53;100.00;102298.22;4174123;28;20033;-72
2024/01/30 00:55:32;;;;;;;11.23;2.60;;;11.20;99.90;;;10.49;100.00;102304.69;4156277;28;20084;-72
2024/01/30 00:57:33;;;;;;;12.40;3.42;;;11.10;99.90;;;10.46;100.00;102302.28;4173375;28;20025;-72
2024/01/30 00:59:34;;;;;;;12.43;2.75;;;11.10;99.90;;;10.48;100.00;102308.31;4172144;28;20036;-72
2024/01/30 01:01:35;;;;;;;14.93;3.10;;;11.10;99.90;;;10.48;100.00;102317.03;4173882;28;20021;-72
2024/01/30 01:03:36;;;;;;;15.52;3.35;;;11.10;99.90;;;10.48;100.00;102310.94;4173887;28;20040;-72
2024/01/30 01:05:36;;;;;;;6.90;2.10;;;11.10;99.90;;;10.50;100.00;102306.38;4156137;28;20489;-72
2024/01/30 01:07:37;;;;;;;9.63;2.78;;;11.10;99.90;;;10.50;100.00;102316.94;4189260;28;20409;-72
2024/01/30 01:09:38;;;;;;;16.45;3.00;;;11.10;99.90;;;10.39;100.00;102320.38;4173852;28;20091;-72
2024/01/30 01:11:39;;;;;;;14.75;2.50;;;11.00;99.90;;;10.27;100.00;102323.13;4172582;28;20029;-72
2024/01/30 01:13:40;;;;;;;12.65;2.40;;;11.00;99.90;;;10.19;100.00;102328.09;4172471;28;20057;-72
2024/01/30 01:15:41;;;;;;;16.65;2.75;;;10.90;99.90;;;10.12;100.00;102321.59;4173955;28;20040;-72
2024/01/30 01:17:42;;;;;;;10.82;2.00;;;10.80;99.90;;;10.09;100.00;102322.66;4173927;28;20037;-72
2024/01/30 01:19:43;;;;;;;7.80;2.53;;;10.80;99.90;;;10.13;100.00;102332.03;4173808;28;20485;-72
2024/01/30 01:21:43;;;;;;;14.75;3.13;;;10.80;99.90;;;10.17;100.00;102330.88;4173812;28;20055;-72
2024/01/30 01:23:44;;;;;;;7.95;2.13;;;10.80;99.90;;;10.21;100.00;102332.34;4173734;28;20034;-72
2024/01/30 01:25:45;;;;;;;11.18;2.50;;;10.80;99.90;;;10.24;100.00;102336.53;4173890;28;20026;-72
2024/01/30 01:27:51;;;;;;;10.10;1.80;;;10.90;99.90;;;10.26;100.00;102339.88;4173780;28;20026;-72
2024/01/30 01:29:52;;;;;;;16.85;2.45;;;10.90;99.90;;;10.24;100.00;102344.44;4173530;28;20032;-72
2024/01/30 01:31:53;;;;;;;9.00;1.75;;;10.90;99.90;;;10.24;100.00;102341.81;4172382;28;20111;-72
2024/01/30 01:33:54;;;;;;;9.75;2.22;;;10.90;99.90;;;10.19;100.00;102338.66;4173775;28;20021;-72
2024/01/30 01:35:55;;;;;;;8.68;2.40;;;10.90;99.90;;;10.20;100.00;102345.63;4173730;28;20029;-72
2024/01/30 01:37:57;;;;;;;7.18;1.67;;;10.80;99.90;;;10.17;100.00;102340.56;4173669;28;20080;-72
2024/01/30 01:39:58;;;;;;;8.65;2.42;;;10.80;99.90;;;10.16;100.00;102342.38;4173630;28;20108;-72
2024/01/30 01:41:59;;;;;;;8.32;2.10;;;10.80;99.90;;;10.19;100.00;102346.56;4173761;28;20026;-72
2024/01/30 01:44:00;;;;;;;11.38;2.17;;;10.80;99.90;;;10.18;100.00;102348.38;4173389;28;20112;-72
2024/01/30 01:46:01;;;;;;;9.40;1.85;;;10.80;99.90;;;10.22;100.00;102351.59;4171804;28;20037;-72
2024/01/30 01:48:03;;;;;;;6.82;1.40;;;10.90;99.90;;;10.24;100.00;102341.81;4173479;28;20493;-72
2024/01/30 01:50:04;;;;;;;6.65;1.23;;;10.90;99.90;;;10.24;100.00;102342.66;4172243;28;20041;-72
2024/01/30 01:52:06;;;;;;;4.50;1.20;;;10.90;99.90;;;10.21;100.00;102348.16;4173611;28;20029;-72
2024/01/30 01:54:07;;;;;;;11.15;1.83;;;10.90;99.90;;;10.21;100.00;102357.84;4155864;28;20026;-72
2024/01/30 01:56:09;;;;;;;5.82;1.10;;;10.80;99.90;;;10.21;100.00;102352.59;4169221;28;20126;-72
2024/01/30 01:58:12;;;;;;;4.43;0.70;;;10.80;99.90;;;10.21;100.00;102353.44;4170898;28;20438;-72
2024/01/30 02:00:14;;;;;;;6.45;1.60;;;10.80;99.90;;;10.14;100.00;102356.63;4169715;28;20550;-72
2024/01/30 02:02:17;;;;;;;3.20;0.70;;;10.80;99.90;;;10.13;100.00;102355.78;4169545;28;20021;-72
2024/01/30 02:04:18;;;;;;;3.42;0.60;;;10.80;99.90;;;10.12;100.00;102355.88;4169665;28;20086;-72
2024/01/30 02:06:19;;;;;;;4.18;0.70;;;10.80;99.90;;;10.06;100.00;102358.97;4169863;28;20022;-72
2024/01/30 02:08:20;;;;;;;3.85;1.60;;;10.80;99.90;;;10.04;100.00;102369.59;4169631;28;20021;-72
2024/01/30 02:10:21;;;;;;;3.88;1.50;;;10.70;99.90;;;10.00;100.00;102381.34;4170732;28;20040;-72
2024/01/30 02:12:22;;;;;;;9.27;1.67;;;10.70;99.90;;;9.97;100.00;102366.56;4170653;28;20028;-72
2024/01/30 02:14:23;;;;;;;5.40;0.98;;;10.70;99.90;;;10.00;100.00;102368.16;4170932;28;20033;-72
2024/01/30 02:16:24;;;;;;;2.13;0.80;;;10.70;99.90;;;9.91;100.00;102369.69;4169749;28;20055;-73
2024/01/30 02:18:24;;;;;;;3.33;0.70;;;10.70;99.90;;;9.95;100.00;102381.66;4170779;28;20022;-72
2024/01/30 02:20:29;;;;;;;4.72;0.90;;;10.70;99.90;;;9.93;100.00;102383.59;4170536;28;20026;-72
2024/01/30 02:22:32;;;;;;;3.97;0.50;;;10.60;99.90;;;9.90;100.00;102386.44;4169729;28;20025;-72
2024/01/30 02:24:33;;;;;;;4.30;0.68;;;10.60;99.90;;;9.79;100.00;102385.53;4169533;28;20113;-72
2024/01/30 02:26:34;;;;;;;3.38;0.70;;;10.50;99.90;;;9.74;100.00;102388.50;4169377;28;20398;-72
2024/01/30 02:28:34;;;;;;;4.07;0.82;;;10.40;99.90;;;9.54;100.00;102386.44;4169225;28;20021;-72
2024/01/30 02:30:35;;;;;;;3.17;0.57;;;10.30;99.90;;;9.43;100.00;102392.50;4170452;28;20037;-72
2024/01/30 02:32:36;;;;;;;5.32;0.60;;;10.20;99.90;;;9.32;100.00;102391.53;4170706;28;20037;-72
2024/01/30 02:34:37;;;;;;;4.45;0.90;;;10.00;99.90;;;9.21;100.00;102391.47;4170416;28;20022;-72
2024/01/30 02:36:38;;;;;;;3.97;0.43;;;10.00;99.90;;;9.08;100.00;102390.66;4169088;28;20536;-72
2024/01/30 02:38:38;;;;;;;5.25;0.77;;;9.80;99.90;;;8.96;100.00;102387.03;4169309;28;20021;-72
2024/01/30 02:40:39;;;;;;;2.22;0.70;;;9.70;99.90;;;8.86;100.00;102399.16;4169042;28;20025;-72
2024/01/30 02:42:41;;;;;;;2.80;0.68;;;9.70;99.90;;;8.79;100.00;102397.88;4170235;28;20029;-72
2024/01/30 02:44:42;;;;;;;3.92;0.63;;;9.50;99.90;;;8.72;100.00;102394.81;4170128;28;20385;-72
2024/01/30 02:46:43;;;;;;;4.03;0.73;;;9.40;99.90;;;8.62;100.00;102399.03;4169950;28;20044;-72
2024/01/30 02:48:44;;;;;;;5.13;0.70;;;9.40;99.90;;;8.55;100.00;102397.75;4170389;28;20048;-72
2024/01/30 02:50:45;;;;;;;6.53;1.05;;;9.30;99.90;;;8.49;100.00;102402.56;4170178;28;20025;-72
2024/01/30 02:52:46;;;;;;;3.00;0.68;;;9.20;99.90;;;8.44;100.00;102400.25;4170010;28;20512;-72
2024/01/30 02:54:47;;;;;;;3.58;0.77;;;9.10;99.90;;;8.42;100.00;102404.78;4170155;28;20029;-72
2024/01/30 02:56:48;;;;;;;1.85;0.50;;;9.20;99.90;;;8.49;100.00;102402.56;4169690;28;20090;-72
2024/01/30 02:58:49;;;;;;;2.97;0.65;;;9.20;99.90;;;8.51;100.00;102396.25;4169907;28;20029;-72
2024/01/30 03:00:50;;;;;;;5.95;1.27;;;9.20;99.90;;;8.54;100.00;102400.50;4169797;28;20497;-72
2024/01/30 03:02:51;;;;;;;2.88;0.80;;;9.20;99.90;;;8.58;100.00;102394.06;4169985;28;20025;-72
2024/01/30 03:04:51;;;;;;;6.05;0.82;;;9.30;99.90;;;8.63;100.00;102400.69;4169869;28;20148;-72
2024/01/30 03:06:52;;;;;;;4.38;0.57;;;9.30;99.90;;;8.72;100.00;102405.34;4167176;28;20029;-72
2024/01/30 03:08:53;;;;;;;3.35;0.60;;;9.40;99.90;;;8.83;100.00;102404.63;4169667;28;20045;-72
2024/01/30 03:10:54;;;;;;;3.10;0.80;;;9.50;99.90;;;8.95;100.00;102413.47;4169891;28;20032;-72
2024/01/30 03:12:55;;;;;;;2.65;0.60;;;9.60;99.90;;;9.05;100.00;102414.53;4168934;28;20037;-72
2024/01/30 03:14:56;;;;;;;4.35;1.45;;;9.70;99.90;;;9.13;100.00;102409.59;4169716;28;20030;-72
2024/01/30 03:16:57;;;;;;;2.80;0.70;;;9.70;99.90;;;9.17;100.00;102413.69;4169894;28;20037;-72
2024/01/30 03:18:58;;;;;;;3.95;0.52;;;9.80;99.90;;;9.22;100.00;102411.59;4168732;28;20030;-72
2024/01/30 03:20:58;;;;;;;2.95;0.60;;;9.90;99.90;;;9.26;100.00;102415.66;4169971;28;20029;-72
2024/01/30 03:23:00;;;;;;;7.40;1.25;;;9.90;99.90;;;9.31;100.00;102410.94;4169593;28;20092;-72
2024/01/30 03:25:01;;;;;;;2.95;0.80;;;9.90;99.90;;;9.36;100.00;102417.56;4169575;28;20029;-72
2024/01/30 03:27:02;;;;;;;1.30;0.60;;;10.00;99.90;;;9.40;100.00;102405.03;4168383;28;20043;-72
2024/01/30 03:29:03;;;;;;;3.33;0.55;;;10.00;99.90;;;9.40;100.00;102403.25;4169558;28;20057;-72
2024/01/30 03:31:04;;;;;;;4.82;0.75;;;10.00;99.90;;;9.44;100.00;102417.88;4169569;28;20036;-72
2024/01/30 03:33:05;;;;;;;1.88;0.98;;;10.10;99.90;;;9.44;100.00;102409.97;4169490;28;20048;-72
2024/01/30 03:35:06;;;;;;;4.78;1.17;;;10.10;99.90;;;9.49;100.00;102414.06;4169483;28;20037;-72
2024/01/30 03:37:07;;;;;;;2.20;1.35;;;10.10;99.90;;;9.50;100.00;102419.22;4169472;28;20029;-72
2024/01/30 03:39:08;;;;;;;6.63;3.00;;;10.10;99.90;;;9.51;100.00;102413.00;4169340;28;20448;-72
2024/01/30 03:41:09;;;;;;;8.32;3.13;;;10.10;99.90;;;9.50;100.00;102419.22;4168213;28;20439;-72
2024/01/30 03:43:10;;;;;;;7.35;2.60;;;10.10;99.90;;;9.53;100.00;102419.00;4167973;28;20021;-72
2024/01/30 03:45:11;;;;;;;4.65;2.22;;;10.10;99.90;;;9.54;100.00;102417.22;4169116;28;20538;-72
2024/01/30 03:47:12;;;;;;;6.00;2.42;;;10.10;99.90;;;9.52;100.00;102414.72;4167879;28;20129;-72
2024/01/30 03:49:13;;;;;;;5.68;2.15;;;10.10;99.90;;;9.52;100.00;102417.34;4169206;28;20029;-72
2024/01/30 03:51:15;;;;;;;3.70;1.85;;;10.10;99.90;;;9.54;100.00;102410.16;4169109;28;20493;-72
2024/01/30 03:53:17;;;;;;;2.80;1.23;;;10.20;99.90;;;9.55;100.00;102416.28;4169111;28;20028;-72
2024/01/30 03:55:18;;;;;;;4.55;1.10;;;10.20;99.90;;;9.54;100.00;102414.59;4167683;28;20061;-72
2024/01/30 03:57:18;;;;;;;5.00;1.55;;;10.20;99.90;;;9.54;100.00;102419.84;4169057;28;20421;-72
2024/01/30 03:59:23;;;;;;;4.53;1.27;;;10.20;99.90;;;9.53;100.00;102418.19;4168739;28;20408;-72
2024/01/30 04:01:25;;;;;;;4.25;1.42;;;10.20;99.90;;;9.53;100.00;102426.09;4168192;28;20404;-72
2024/01/30 04:03:25;;;;;;;3.58;1.33;;;10.20;99.90;;;9.55;100.00;102429.44;4169013;28;20099;-72
2024/01/30 04:05:26;;;;;;;3.42;1.30;;;10.20;99.90;;;9.52;100.00;102427.88;4167755;28;20021;-72
2024/01/30 04:07:27;;;;;;;3.03;0.93;;;10.20;99.90;;;9.50;100.00;102429.75;4168866;28;20029;-72
2024/01/30 04:09:28;;;;;;;7.05;1.38;;;10.10;99.90;;;9.48;100.00;102426.41;4167742;28;20018;-72
2024/01/30 04:11:29;;;;;;;5.95;0.98;;;10.10;99.90;;;9.46;100.00;102433.56;4168992;28;20021;-72
2024/01/30 04:13:30;;;;;;;4.03;1.15;;;10.20;99.90;;;9.44;100.00;102433.66;4168790;28;20033;-72
2024/01/30 04:15:30;;;;;;;2.05;0.82;;;10.10;99.90;;;9.44;100.00;102433.66;4168827;28;20025;-72
2024/01/30 04:17:32;;;;;;;5.35;0.70;;;10.10;99.90;;;9.44;100.00;102432.81;4168909;28;20029;-72
2024/01/30 04:19:36;;;;;;;4.13;0.77;;;10.10;99.90;;;9.43;100.00;102423.25;4168552;28;20089;-72
2024/01/30 04:21:37;;;;;;;2.95;0.50;;;10.10;99.90;;;9.44;100.00;102433.66;4151637;28;20034;-72
2024/01/30 04:23:42;;;;;;;1.80;0.68;;;10.10;99.90;;;9.39;100.00;102429.69;4168556;28;20378;-72
2024/01/30 04:25:43;;;;;;;3.05;0.70;;;10.00;99.90;;;9.37;100.00;102432.44;4167900;28;20374;-72
2024/01/30 04:27:44;;;;;;;2.72;0.40;;;10.10;99.90;;;9.36;100.00;102437.78;4168788;28;20032;-72
2024/01/30 04:29:45;;;;;;;3.75;0.50;;;10.00;99.90;;;9.31;100.00;102439.91;4168539;28;20021;-72
2024/01/30 04:31:46;;;;;;;4.20;0.85;;;10.00;99.90;;;9.29;100.00;102439.16;4168641;28;20030;-72
2024/01/30 04:33:46;;;;;;;4.53;0.70;;;10.00;99.90;;;9.27;100.00;102443.69;4168810;28;20039;-72
2024/01/30 04:35:47;;;;;;;2.58;0.60;;;9.90;99.90;;;9.29;100.00;102452.31;4168737;28;20064;-72
2024/01/30 04:37:48;;;;;;;2.38;0.77;;;10.00;99.90;;;9.27;100.00;102443.69;4168638;28;20493;-72
2024/01/30 04:39:49;;;;;;;4.65;1.25;;;10.00;99.90;;;9.25;100.00;102454.34;4168506;28;20029;-72
2024/01/30 04:41:50;;;;;;;5.88;1.90;;;9.90;99.90;;;9.21;100.00;102444.13;4168738;28;20029;-72
2024/01/30 04:43:51;;;;;;;6.22;1.67;;;9.90;99.90;;;9.14;100.00;102434.97;4168364;28;20041;-72
2024/01/30 04:45:51;;;;;;;5.65;0.90;;;9.80;99.90;;;9.15;100.00;102457.69;4168558;28;20032;-72
2024/01/30 04:47:52;;;;;;;5.40;1.33;;;9.80;99.90;;;9.13;100.00;102446.44;4168254;28;20048;-72
2024/01/30 04:49:53;;;;;;;2.72;0.65;;;9.80;99.90;;;9.12;100.00;102453.50;4168678;28;20028;-72
2024/01/30 04:51:54;;;;;;;1.45;0.70;;;9.80;99.90;;;9.09;100.00;102452.84;4168809;28;20056;-72
2024/01/30 04:53:55;;;;;;;1.80;0.50;;;9.80;99.90;;;9.08;100.00;102451.19;4167428;28;20068;-72
2024/01/30 04:55:56;;;;;;;2.05;0.50;;;9.80;99.90;;;9.04;100.00;102458.44;4168440;28;20098;-72
2024/01/30 04:57:57;;;;;;;2.45;0.80;;;9.70;99.90;;;8.98;100.00;102463.28;4168193;28;20013;-72
2024/01/30 04:59:58;;;;;;;2.33;0.80;;;9.70;99.90;;;8.92;100.00;102463.69;4168340;28;20028;-72
2024/01/30 05:01:58;;;;;;;4.28;1.15;;;9.60;99.90;;;8.83;100.00;102466.00;4168288;28;20092;-72
2024/01/30 05:04:00;;;;;;;1.95;0.98;;;9.50;99.90;;;8.74;100.00;102471.88;4168287;28;20040;-72
2024/01/30 05:06:01;;;;;;;3.60;0.68;;;9.40;99.90;;;8.61;100.00;102468.34;4168541;28;20029;-72
2024/01/30 05:08:03;;;;;;;4.78;0.73;;;9.30;99.90;;;8.53;100.00;102475.06;4167284;28;20504;-72
2024/01/30 05:10:04;;;;;;;4.95;0.98;;;9.30;99.90;;;8.45;100.00;102465.06;4167865;28;20017;-72
2024/01/30 05:12:05;;;;;;;5.13;0.90;;;9.20;99.90;;;8.42;100.00;102481.03;4168426;28;20371;-72
2024/01/30 05:14:06;;;;;;;1.20;0.60;;;9.10;99.90;;;8.37;100.00;102471.75;4168222;28;20025;-72
2024/01/30 05:16:07;;;;;;;2.97;0.77;;;9.10;99.90;;;8.36;100.00;102478.81;4150839;28;20525;-72
2024/01/30 05:18:08;;;;;;;3.17;0.90;;;9.10;99.90;;;8.33;100.00;102486.91;4168419;28;20029;-72
2024/01/30 05:20:10;;;;;;;2.45;0.70;;;9.10;99.90;;;8.31;100.00;102481.72;4169250;28;20029;-72
2024/01/30 05:22:15;;;;;;;4.00;0.93;;;9.00;99.90;;;8.28;100.00;102483.69;4169698;28;20021;-72
2024/01/30 05:24:16;;;;;;;2.50;0.75;;;9.00;99.90;;;8.24;100.00;102493.53;4168065;28;20040;-72
2024/01/30 05:26:17;;;;;;;3.30;0.85;;;9.00;99.90;;;8.19;100.00;102489.50;4168268;28;20030;-72
2024/01/30 05:28:18;;;;;;;4.15;0.90;;;8.90;99.90;;;8.16;100.00;102481.81;4166997;28;20018;-72
2024/01/30 05:30:19;;;;;;;4.72;1.27;;;8.90;99.90;;;8.10;100.00;102490.94;4167837;28;20456;-72
2024/01/30 05:32:20;;;;;;;2.85;0.75;;;8.80;99.90;;;8.00;100.00;102486.38;4171639;28;20026;-72
2024/01/30 05:34:21;;;;;;;2.65;0.85;;;8.70;99.90;;;7.86;100.00;102491.63;4171367;28;20394;-72
2024/01/30 05:36:22;;;;;;;2.28;0.68;;;8.60;99.90;;;7.78;100.00;102500.00;4170122;28;20033;-72
2024/01/30 05:38:22;;;;;;;2.10;0.80;;;8.50;99.90;;;7.68;100.00;102502.34;4171356;28;20036;-72
2024/01/30 05:40:23;;;;;;;2.35;0.98;;;8.40;99.90;;;7.59;100.00;102502.06;4170843;28;20030;-72
2024/01/30 05:42:24;;;;;;;3.22;1.05;;;8.30;99.90;;;7.51;100.00;102504.34;4170539;28;20048;-72
2024/01/30 05:44:25;;;;;;;6.05;0.93;;;8.30;99.90;;;7.51;100.00;102514.84;4169352;28;20029;-72
2024/01/30 05:46:26;;;;;;;4.03;0.90;;;8.20;99.90;;;7.49;100.00;102507.06;4170921;28;20064;-72
2024/01/30 05:48:27;;;;;;;4.50;1.35;;;8.20;99.90;;;7.52;100.00;102503.41;4169746;28;20049;-72
2024/01/30 05:50:28;;;;;;;3.40;0.80;;;8.30;99.90;;;7.57;100.00;102510.06;4171281;28;20052;-72
2024/01/30 05:52:29;;;;;;;5.05;0.95;;;8.30;99.90;;;7.60;100.00;102512.50;4170365;28;20022;-72
2024/01/30 05:54:30;;;;;;;5.47;1.30;;;8.30;99.90;;;7.66;100.00;102517.38;4170598;28;20033;-72
2024/01/30 05:56:30;;;;;;;3.00;1.52;;;8.40;99.90;;;7.67;100.00;102510.34;4170359;28;20025;-72
2024/01/30 05:58:31;;;;;;;4.25;0.82;;;8.40;99.90;;;7.62;100.00;102508.00;4170179;28;20017;-72
2024/01/30 06:00:32;;;;;;;3.33;1.30;;;8.40;99.90;;;7.64;100.00;102515.78;4171024;28;20087;-72
2024/01/30 06:02:33;;;;;;;6.68;0.90;;;8.40;99.90;;;7.62;100.00;102520.25;4170851;28;20060;-72
2024/01/30 06:04:34;;;;;;;3.63;1.30;;;8.40;99.90;;;7.56;100.00;102521.50;4171805;28;20079;-72
2024/01/30 06:06:34;;;;;;;1.77;0.73;;;8.30;99.90;;;7.49;100.00;102524.59;4169844;28;20025;-72
2024/01/30 06:08:35;;;;;;;1.73;0.70;;;8.20;99.90;;;7.39;100.00;102529.53;4169544;28;20033;-72
2024/01/30 06:10:36;;;;;;;2.38;0.75;;;8.20;99.90;;;7.33;100.00;102532.53;4169416;28;20029;-72
2024/01/30 06:12:38;;;;;;;3.65;0.90;;;8.10;99.90;;;7.25;100.00;102537.41;4170878;28;20026;-72
2024/01/30 06:14:38;;;;;;;5.72;0.80;;;8.00;99.90;;;7.17;100.00;102531.75;4170567;28;20029;-72
2024/01/30 06:16:39;;;;;;;3.08;0.80;;;8.00;99.90;;;7.09;100.00;102534.84;4170813;28;20040;-72
2024/01/30 06:18:40;;;;;;;4.25;1.58;;;7.90;99.90;;;7.03;100.00;102539.59;4170536;28;20029;-72
2024/01/30 06:20:41;;;;;;;1.52;0.70;;;7.80;99.90;;;6.95;100.00;102541.81;4170598;28;20029;-72
2024/01/30 06:22:42;;;;;;;6.75;1.00;;;7.70;99.90;;;6.85;100.00;102538.88;4169521;28;20060;-72
2024/01/30 06:24:50;;;;;;;3.80;0.98;;;7.60;99.90;;;6.80;100.00;102537.47;4169400;28;20513;-72
2024/01/30 06:26:51;;;;;;;3.25;0.98;;;7.50;99.90;;;6.73;100.00;102533.47;4153449;28;20103;-72
2024/01/30 06:28:51;;;;;;;6.22;1.90;;;7.50;99.90;;;6.67;100.00;102534.69;4168667;28;20022;-72
2024/01/30 06:30:52;;;;;;;5.50;1.17;;;7.40;99.90;;;6.62;100.00;102536.72;4168651;28;20025;-72
2024/01/30 06:32:53;;;;;;;5.32;1.08;;;7.30;99.90;;;6.57;100.00;102544.84;4170603;28;20079;-72
2024/01/30 06:34:54;;;;;;;4.35;0.90;;;7.30;99.90;;;6.51;100.00;102545.19;4170415;28;20075;-72
2024/01/30 06:36:55;;;;;;;4.45;1.10;;;7.30;99.90;;;6.49;100.00;102549.66;4169272;28;20501;-72
2024/01/30 06:38:55;;;;;;;3.17;1.23;;;7.20;99.90;;;6.42;100.00;102540.44;4170428;28;20034;-72
2024/01/30 06:40:56;;;;;;;4.15;1.17;;;7.10;99.90;;;6.38;100.00;102541.56;4169732;28;20033;-72
2024/01/30 06:42:57;;;;;;;2.30;1.02;;;7.10;99.90;;;6.33;100.00;102540.97;4169956;28;20033;-72
2024/01/30 06:44:58;;;;;;;5.22;0.88;;;7.00;99.90;;;6.29;100.00;102544.69;4169715;28;20018;-72
2024/01/30 06:46:59;;;;;;;3.40;1.02;;;7.00;99.90;;;6.26;100.00;102544.88;4170183;28;20072;-72
2024/01/30 06:49:00;;;;;;;3.88;1.50;;;6.90;99.90;;;6.23;100.00;102549.44;4168248;28;20026;-72
2024/01/30 06:51:00;;;;;;;2.28;1.10;;;6.90;99.90;;;6.20;100.00;102558.31;4168398;28;20092;-72
2024/01/30 06:53:01;;;;;;;6.10;1.58;;;6.90;99.90;;;6.13;100.00;102555.16;4169927;28;20041;-72
2024/01/30 06:55:02;;;;;;;3.00;1.15;;;6.80;99.90;;;6.06;100.00;102553.78;4168091;28;20033;-72
2024/01/30 06:57:04;;;;;;;4.03;1.88;;;6.80;99.90;;;6.01;100.00;102557.59;4152127;28;20119;-72
2024/01/30 06:59:05;;;;;;;4.60;1.40;;;6.70;99.90;;;5.96;100.00;102557.84;4169203;28;20029;-72
2024/01/30 07:01:07;;;;;;;2.53;1.15;;;6.70;99.90;;;5.91;100.00;102564.28;4169468;28;20044;-71
2024/01/30 07:03:07;;;;;;;6.40;1.13;;;6.60;99.90;;;5.86;100.00;102576.75;4151900;28;20029;-71
2024/01/30 07:05:09;;;;;;;3.17;1.13;;;6.60;99.90;;;5.81;100.00;102573.50;4169228;28;20079;-72
2024/01/30 07:07:12;;;;;;;2.15;1.02;;;6.50;99.90;;;5.78;100.00;102564.03;4169416;28;20022;-72
2024/01/30 07:09:13;;;;;;;2.03;1.10;;;6.50;99.90;;;5.77;100.00;102567.56;4169213;28;20029;-72
2024/01/30 07:11:22;;;;;;;4.93;1.60;;;6.50;99.90;;;5.76;100.00;102578.13;4167655;28;20021;-71
2024/01/30 07:13:22;;;;;;;4.95;1.80;;;6.40;99.90;;;5.70;100.00;102575.84;4166151;28;20025;-72
2024/01/30 07:15:23;;;;;;;3.00;1.83;;;6.40;99.90;;;5.67;100.00;102579.47;4166429;28;20041;-72
2024/01/30 07:17:24;;;;;;;2.50;1.33;;;6.40;99.90;;;5.64;100.00;102573.53;4168460;28;20030;-72
2024/01/30 07:19:25;;;;;;;4.97;1.23;;;6.40;99.90;;;5.58;100.00;102582.56;4168739;28;20028;-72
2024/01/30 07:21:28;;;;;;;2.70;1.70;;;6.30;99.90;;;5.52;100.00;102569.78;4168865;28;20029;-72
2024/01/30 07:23:29;;;;;;;4.55;1.98;;;6.30;99.90;;;5.50;100.00;102571.63;4168522;28;20548;-71
2024/01/30 07:25:30;;;;;;;4.25;1.70;;;6.30;99.90;;;5.52;100.00;102582.88;4168757;28;20089;-72
2024/01/30 07:27:31;;;;;;;4.70;1.75;;;6.20;99.90;;;5.53;100.00;102580.16;4169779;28;20024;-72
2024/01/30 07:29:32;;;;;;;5.25;1.73;;;6.20;99.90;;;5.52;100.00;102582.88;4169340;28;20436;-72
2024/01/30 07:31:33;;;;;;;2.28;1.60;;;6.20;99.90;;;5.52;100.00;102594.19;4168383;28;20027;-72
2024/01/30 07:33:34;;;;;;;7.60;2.05;;;6.20;99.90;;;5.50;100.00;102595.16;4169637;28;20025;-72
2024/01/30 07:35:36;;;;;;;2.95;1.45;;;6.20;99.90;;;5.50;100.00;102592.56;4168416;28;20022;-72
2024/01/30 07:37:37;;;;;;;2.45;1.58;;;6.20;99.90;;;5.48;100.00;102597.88;4169458;28;20030;-72
2024/01/30 07:39:37;;;;;;;4.40;1.50;;;6.20;99.90;;;5.48;100.00;102597.88;4168123;28;20060;-72
2024/01/30 07:41:38;;;;;;;4.03;1.70;;;6.20;99.90;;;5.46;100.00;102596.28;4168349;28;20033;-72
2024/01/30 07:43:39;;;;;;;4.18;1.85;;;6.20;99.90;;;5.44;100.00;102592.88;4167959;28;20031;-72
2024/01/30 07:45:40;;;;;;;4.43;2.10;;;6.10;99.90;;;5.47;100.00;102597.94;4169315;28;20539;-72
2024/01/30 07:47:42;;;;;;;4.50;1.50;;;6.10;99.90;;;5.44;100.00;102598.94;4168948;28;20088;-72
2024/01/30 07:49:43;;;;;;;4.78;1.40;;;6.20;99.90;;;5.41;100.00;102601.72;4169018;28;20053;-72
2024/01/30 07:51:45;;;;;;;5.40;1.70;;;6.10;99.90;;;5.41;100.00;102606.97;4169260;28;20024;-72
2024/01/30 07:53:52;;;;;;;4.97;1.88;;;6.10;99.90;;;5.40;100.00;102601.81;4168475;28;20033;-72
2024/01/30 07:55:53;;;;;;;7.43;2.05;;;6.10;99.90;;;5.39;100.00;102606.19;4167874;28;20037;-72
2024/01/30 07:57:54;;;;;;;6.70;1.85;;;6.10;99.90;;;5.39;100.00;102603.59;4167915;28;20033;-72
2024/01/30 07:59:57;;;;;;;5.40;2.05;;;6.10;99.90;;;5.39;100.00;102614.06;4167762;28;20045;-72
2024/01/30 08:01:58;;;;;;;4.03;2.08;;;6.10;99.90;;;5.40;100.00;102612.28;4169163;28;20026;-70
2024/01/30 08:03:58;;;;;;;3.60;2.10;;;6.10;99.90;;;5.41;100.00;102619.19;4167551;28;20025;-70
2024/01/30 08:05:59;;;;;;;4.30;2.35;;;6.10;99.90;;;5.41;100.00;102627.91;4169126;28;20087;-70
2024/01/30 08:08:00;;;;;;;3.65;2.10;;;6.10;99.90;;;5.36;100.00;102622.06;4168165;28;20064;-70
2024/01/30 08:10:01;;;;;;;6.20;2.67;;;6.10;99.90;;;5.36;100.00;102635.13;4169031;28;20022;-71
2024/01/30 08:12:02;;;;;;;7.20;3.10;;;6.10;99.90;;;5.37;100.00;102643.84;4167802;28;20025;-71
2024/01/30 08:14:03;;;;;;;5.20;2.90;;;6.10;99.90;;;5.40;100.00;102641.94;4168997;28;20496;-71
2024/01/30 08:16:04;;;;;;;7.75;4.93;;;6.10;99.90;;;5.39;100.00;102645.44;4169036;28;20026;-71
2024/01/30 08:18:06;;;;;;;8.45;4.38;;;6.10;99.90;;;5.41;100.00;102647.97;4169133;28;20033;-70
2024/01/30 08:20:10;;;;;;;10.07;4.70;;;6.10;99.90;;;5.47;100.00;102659.00;4167541;28;20385;-70
2024/01/30 08:22:13;;;;;;;11.80;5.70;;;6.20;99.90;;;5.49;100.00;102656.31;4154867;28;20112;-70
2024/01/30 08:24:13;;;;;;;6.50;4.65;;;6.20;99.90;;;5.53;100.00;102658.69;4149663;28;20323;-69